sensor_id;sensor_type;location;lat;lon;timestamp;pressure;altitude;pressure_sealevel;temperature;humidity
73700;BME280;62005;50.082;8.988;2023-03-14T00:02:56;98595.59;;;10.64;91.29
73700;BME280;62005;50.082;8.988;2023-03-14T00:05:27;98507.94;;;10.19;91.07
73700;BME280;62005;50.082;8.988;2023-03-14T00:10:38;98514.72;;;10.27;90.88
73700;BME280;62005;50.082;8.988;2023-03-14T00:13:20;98513.91;;;10.36;91.60
73700;BME280;62005;50.082;8.988;2023-03-14T00:15:51;98576.69;;;10.79;91.38
73700;BME280;62005;50.082;8.988;2023-03-14T00:18:33;98510.41;;;10.31;90.91
73700;BME280;62005;50.082;8.988;2023-03-14T00:24:14;98561.00;;;10.66;90.33
73700;BME280;62005;50.082;8.988;2023-03-14T00:32:50;98572.09;;;10.69;89.17
73700;BME280;62005;50.082;8.988;2023-03-14T00:35:21;98502.03;;;10.32;89.36
73700;BME280;62005;50.082;8.988;2023-03-14T00:40:59;98568.59;;;10.74;88.95
73700;BME280;62005;50.082;8.988;2023-03-14T00:43:48;98568.03;;;10.77;88.90
73700;BME280;62005;50.082;8.988;2023-03-14T00:46:29;98515.03;;;10.50;88.30
73700;BME280;62005;50.082;8.988;2023-03-14T00:49:24;98595.13;;;10.97;88.25
73700;BME280;62005;50.082;8.988;2023-03-14T00:52:16;98549.38;;;10.65;88.54
73700;BME280;62005;50.082;8.988;2023-03-14T00:54:44;98534.50;;;10.52;87.94
73700;BME280;62005;50.082;8.988;2023-03-14T01:06:23;98495.06;;;10.62;88.00
73700;BME280;62005;50.082;8.988;2023-03-14T01:12:36;98488.59;;;10.58;87.51
73700;BME280;62005;50.082;8.988;2023-03-14T01:15:20;98512.38;;;10.66;87.86
73700;BME280;62005;50.082;8.988;2023-03-14T01:21:10;98514.53;;;10.64;86.84
73700;BME280;62005;50.082;8.988;2023-03-14T01:23:47;98585.94;;;11.08;86.83
73700;BME280;62005;50.082;8.988;2023-03-14T01:30:12;98584.88;;;11.09;87.63
73700;BME280;62005;50.082;8.988;2023-03-14T01:33:10;98502.34;;;10.56;87.47
73700;BME280;62005;50.082;8.988;2023-03-14T01:52:44;98548.06;;;11.08;87.00
73700;BME280;62005;50.082;8.988;2023-03-14T01:58:50;98470.22;;;10.70;86.47
73700;BME280;62005;50.082;8.988;2023-03-14T02:01:43;98457.78;;;10.69;85.67
73700;BME280;62005;50.082;8.988;2023-03-14T02:04:51;98517.25;;;11.09;85.52
73700;BME280;62005;50.082;8.988;2023-03-14T02:11:02;98426.97;;;10.60;85.81
73700;BME280;62005;50.082;8.988;2023-03-14T02:27:17;98469.13;;;11.06;85.58
73700;BME280;62005;50.082;8.988;2023-03-14T02:42:26;98381.59;;;10.67;86.03
73700;BME280;62005;50.082;8.988;2023-03-14T02:45:27;98436.66;;;11.06;85.70
73700;BME280;62005;50.082;8.988;2023-03-14T02:50:49;98418.84;;;10.85;85.84
73700;BME280;62005;50.082;8.988;2023-03-14T02:53:36;98438.03;;;11.03;85.71
73700;BME280;62005;50.082;8.988;2023-03-14T03:03:13;98451.28;;;11.05;84.95
73700;BME280;62005;50.082;8.988;2023-03-14T03:12:16;98451.28;;;11.05;84.33
73700;BME280;62005;50.082;8.988;2023-03-14T03:17:29;98455.06;;;11.04;83.79
73700;BME280;62005;50.082;8.988;2023-03-14T03:19:57;98406.44;;;10.64;83.47
73700;BME280;62005;50.082;8.988;2023-03-14T03:22:37;98380.53;;;10.58;84.00
73700;BME280;62005;50.082;8.988;2023-03-14T03:25:14;98374.56;;;10.50;84.13
73700;BME280;62005;50.082;8.988;2023-03-14T03:27:45;98379.44;;;10.53;83.78
73700;BME280;62005;50.082;8.988;2023-03-14T03:33:04;98361.06;;;10.56;84.09
73700;BME280;62005;50.082;8.988;2023-03-14T03:35:33;98356.22;;;10.52;83.94
73700;BME280;62005;50.082;8.988;2023-03-14T03:38:16;98361.84;;;10.56;84.08
73700;BME280;62005;50.082;8.988;2023-03-14T03:41:11;98359.44;;;10.54;83.76
73700;BME280;62005;50.082;8.988;2023-03-14T03:43:44;98382.13;;;10.69;83.82
73700;BME280;62005;50.082;8.988;2023-03-14T03:46:15;98353.25;;;10.54;84.22
73700;BME280;62005;50.082;8.988;2023-03-14T03:48:59;98375.63;;;10.70;83.21
73700;BME280;62005;50.082;8.988;2023-03-14T03:51:39;98338.91;;;10.59;83.22
73700;BME280;62005;50.082;8.988;2023-03-14T03:54:18;98342.16;;;10.56;83.30
73700;BME280;62005;50.082;8.988;2023-03-14T03:56:59;98342.69;;;10.58;83.03
73700;BME280;62005;50.082;8.988;2023-03-14T03:59:25;98342.69;;;10.58;83.16
73700;BME280;62005;50.082;8.988;2023-03-14T04:02:27;98340.50;;;10.60;83.47
73700;BME280;62005;50.082;8.988;2023-03-14T04:06:13;98348.63;;;10.65;83.17
73700;BME280;62005;50.082;8.988;2023-03-14T04:08:29;98329.44;;;10.56;83.33
73700;BME280;62005;50.082;8.988;2023-03-14T04:13:54;98411.81;;;11.04;82.97
73700;BME280;62005;50.082;8.988;2023-03-14T04:20:29;98399.38;;;11.03;82.60
73700;BME280;62005;50.082;8.988;2023-03-14T04:29:00;98391.81;;;11.00;82.39
73700;BME280;62005;50.082;8.988;2023-03-14T04:31:25;98314.06;;;10.51;81.91
73700;BME280;62005;50.082;8.988;2023-03-14T04:37:01;98315.97;;;10.51;81.47
73700;BME280;62005;50.082;8.988;2023-03-14T04:39:57;98321.59;;;10.54;81.88
73700;BME280;62005;50.082;8.988;2023-03-14T04:42:24;98342.41;;;10.64;81.60
73700;BME280;62005;50.082;8.988;2023-03-14T04:48:04;98317.84;;;10.45;81.38
73700;BME280;62005;50.082;8.988;2023-03-14T04:51:00;98381.00;;;10.95;81.44
73700;BME280;62005;50.082;8.988;2023-03-14T04:57:03;98284.34;;;10.41;81.16
73700;BME280;62005;50.082;8.988;2023-03-14T05:05:59;98364.25;;;10.88;81.21
73700;BME280;62005;50.082;8.988;2023-03-14T05:08:51;98301.38;;;10.42;80.83
73700;BME280;62005;50.082;8.988;2023-03-14T05:11:57;98374.53;;;10.91;81.41
73700;BME280;62005;50.082;8.988;2023-03-14T05:14:38;98284.91;;;10.38;81.83
73700;BME280;62005;50.082;8.988;2023-03-14T05:17:37;98300.28;;;10.48;81.18
73700;BME280;62005;50.082;8.988;2023-03-14T05:20:06;98271.41;;;10.33;81.40
73700;BME280;62005;50.082;8.988;2023-03-14T05:22:52;98278.16;;;10.41;81.59
73700;BME280;62005;50.082;8.988;2023-03-14T05:25:29;98264.88;;;10.49;81.34
73700;BME280;62005;50.082;8.988;2023-03-14T05:28:24;98253.56;;;10.42;81.93
73700;BME280;62005;50.082;8.988;2023-03-14T05:30:53;98331.28;;;10.91;81.65
73700;BME280;62005;50.082;8.988;2023-03-14T05:33:21;98275.16;;;10.58;81.95
73700;BME280;62005;50.082;8.988;2023-03-14T05:36:16;98271.38;;;10.43;81.95
73700;BME280;62005;50.082;8.988;2023-03-14T05:38:47;98319.41;;;10.77;81.83
73700;BME280;62005;50.082;8.988;2023-03-14T05:41:24;98318.34;;;10.73;81.41
73700;BME280;62005;50.082;8.988;2023-03-14T05:43:51;98301.34;;;10.62;81.66
73700;BME280;62005;50.082;8.988;2023-03-14T05:52:53;98314.56;;;10.74;81.83
73700;BME280;62005;50.082;8.988;2023-03-14T05:55:21;98304.31;;;10.66;81.61
73700;BME280;62005;50.082;8.988;2023-03-14T05:57:48;98268.69;;;10.48;81.51
73700;BME280;62005;50.082;8.988;2023-03-14T06:00:19;98267.06;;;10.47;81.44
73700;BME280;62005;50.082;8.988;2023-03-14T06:02:55;98254.13;;;10.39;81.68
73700;BME280;62005;50.082;8.988;2023-03-14T06:05:41;98290.81;;;10.66;80.98
73700;BME280;62005;50.082;8.988;2023-03-14T06:08:30;98315.63;;;10.78;81.34
73700;BME280;62005;50.082;8.988;2023-03-14T06:14:48;98252.47;;;10.48;81.22
73700;BME280;62005;50.082;8.988;2023-03-14T06:17:16;98267.06;;;10.47;81.76
73700;BME280;62005;50.082;8.988;2023-03-14T06:19:58;98346.69;;;10.95;82.80
73700;BME280;62005;50.082;8.988;2023-03-14T06:22:55;98287.56;;;10.64;83.70
73700;BME280;62005;50.082;8.988;2023-03-14T06:25:33;98273.53;;;10.41;84.03
73700;BME280;62005;50.082;8.988;2023-03-14T06:28:01;98268.13;;;10.46;84.80
73700;BME280;62005;50.082;8.988;2023-03-14T06:30:34;98249.81;;;10.33;85.01
73700;BME280;62005;50.082;8.988;2023-03-14T06:33:22;98332.91;;;10.82;85.45
73700;BME280;62005;50.082;8.988;2023-03-14T06:35:56;98246.84;;;10.25;85.05
73700;BME280;62005;50.082;8.988;2023-03-14T06:38:29;98257.91;;;10.33;85.38
73700;BME280;62005;50.082;8.988;2023-03-14T06:41:14;98249.81;;;10.33;85.60
73700;BME280;62005;50.082;8.988;2023-03-14T06:43:52;98255.47;;;10.27;84.69
73700;BME280;62005;50.082;8.988;2023-03-14T06:49:13;98289.19;;;10.44;84.63
73700;BME280;62005;50.082;8.988;2023-03-14T06:51:45;98285.97;;;10.47;83.77
73700;BME280;62005;50.082;8.988;2023-03-14T06:57:09;98306.75;;;10.62;83.70
73700;BME280;62005;50.082;8.988;2023-03-14T06:59:49;98327.53;;;10.72;83.24
73700;BME280;62005;50.082;8.988;2023-03-14T07:02:19;98324.84;;;10.72;83.22
73700;BME280;62005;50.082;8.988;2023-03-14T07:04:57;98239.28;;;10.22;83.07
73700;BME280;62005;50.082;8.988;2023-03-14T07:13:58;98281.63;;;10.51;82.46
73700;BME280;62005;50.082;8.988;2023-03-14T07:16:29;98282.19;;;10.53;82.62
73700;BME280;62005;50.082;8.988;2023-03-14T07:18:58;98300.25;;;10.63;81.69
73700;BME280;62005;50.082;8.988;2023-03-14T07:21:26;98223.91;;;10.27;82.17
73700;BME280;62005;50.082;8.988;2023-03-14T07:23:57;98266.00;;;10.43;81.62
73700;BME280;62005;50.082;8.988;2023-03-14T07:26:27;98232.53;;;10.29;81.08
73700;BME280;62005;50.082;8.988;2023-03-14T07:29:01;98269.47;;;10.59;81.46
73700;BME280;62005;50.082;8.988;2023-03-14T07:31:46;98318.31;;;10.88;81.29
73700;BME280;62005;50.082;8.988;2023-03-14T07:34:18;98242.78;;;10.42;81.43
73700;BME280;62005;50.082;8.988;2023-03-14T07:37:02;98316.69;;;10.92;81.06
73700;BME280;62005;50.082;8.988;2023-03-14T07:39:39;98244.38;;;10.48;80.37
73700;BME280;62005;50.082;8.988;2023-03-14T07:42:04;98270.25;;;10.70;81.00
73700;BME280;62005;50.082;8.988;2023-03-14T07:44:35;98259.19;;;10.66;81.02
73700;BME280;62005;50.082;8.988;2023-03-14T07:47:03;98273.22;;;10.73;80.02
73700;BME280;62005;50.082;8.988;2023-03-14T07:49:28;98282.91;;;10.84;80.83
73700;BME280;62005;50.082;8.988;2023-03-14T07:54:55;98325.56;;;11.07;80.89
73700;BME280;62005;50.082;8.988;2023-03-14T07:57:29;98286.38;;;10.95;81.09
73700;BME280;62005;50.082;8.988;2023-03-14T07:59:55;98223.84;;;10.58;80.17
73700;BME280;62005;50.082;8.988;2023-03-14T08:02:35;98242.19;;;10.66;80.46
73700;BME280;62005;50.082;8.988;2023-03-14T08:05:04;98318.75;;;11.20;80.16
73700;BME280;62005;50.082;8.988;2023-03-14T08:07:38;98276.69;;;10.94;80.43
73700;BME280;62005;50.082;8.988;2023-03-14T08:10:04;98265.31;;;10.97;80.50
73700;BME280;62005;50.082;8.988;2023-03-14T08:12:30;98318.16;;;11.28;79.97
73700;BME280;62005;50.082;8.988;2023-03-14T08:14:55;98306.84;;;11.21;79.68
73700;BME280;62005;50.082;8.988;2023-03-14T08:17:21;98236.44;;;10.82;78.96
73700;BME280;62005;50.082;8.988;2023-03-14T08:22:45;98286.31;;;11.15;78.65
73700;BME280;62005;50.082;8.988;2023-03-14T08:25:21;98256.91;;;10.98;79.27
73700;BME280;62005;50.082;8.988;2023-03-14T08:27:46;98278.78;;;11.12;78.81
73700;BME280;62005;50.082;8.988;2023-03-14T08:30:15;98290.34;;;11.22;77.85
73700;BME280;62005;50.082;8.988;2023-03-14T08:32:44;98255.06;;;10.94;78.10
73700;BME280;62005;50.082;8.988;2023-03-14T08:35:15;98296.00;;;11.26;78.62
73700;BME280;62005;50.082;8.988;2023-03-14T08:37:41;98250.66;;;11.03;77.74
73700;BME280;62005;50.082;8.988;2023-03-14T08:40:08;98254.75;;;11.00;78.31
73700;BME280;62005;50.082;8.988;2023-03-14T08:42:38;98302.47;;;11.30;77.70
73700;BME280;62005;50.082;8.988;2023-03-14T08:45:11;98337.56;;;11.50;77.33
73700;BME280;62005;50.082;8.988;2023-03-14T08:47:48;98272.28;;;11.08;78.20
73700;BME280;62005;50.082;8.988;2023-03-14T08:50:16;98294.38;;;11.25;78.09
73700;BME280;62005;50.082;8.988;2023-03-14T08:52:58;98311.63;;;11.39;78.17
73700;BME280;62005;50.082;8.988;2023-03-14T08:55:26;98312.44;;;11.39;78.07
73700;BME280;62005;50.082;8.988;2023-03-14T08:57:52;98287.31;;;11.29;78.43
73700;BME280;62005;50.082;8.988;2023-03-14T09:00:21;98264.66;;;11.20;78.51
73700;BME280;62005;50.082;8.988;2023-03-14T09:02:52;98312.66;;;11.53;77.67
73700;BME280;62005;50.082;8.988;2023-03-14T09:05:17;98269.47;;;11.33;78.44
73700;BME280;62005;50.082;8.988;2023-03-14T09:07:48;98260.28;;;11.29;77.95
73700;BME280;62005;50.082;8.988;2023-03-14T09:10:16;98307.75;;;11.60;77.64
73700;BME280;62005;50.082;8.988;2023-03-14T09:12:45;98281.84;;;11.44;77.16
73700;BME280;62005;50.082;8.988;2023-03-14T09:15:10;98289.38;;;11.52;77.65
73700;BME280;62005;50.082;8.988;2023-03-14T09:17:39;98326.03;;;11.83;76.68
73700;BME280;62005;50.082;8.988;2023-03-14T09:20:04;98324.38;;;11.87;77.82
73700;BME280;62005;50.082;8.988;2023-03-14T09:22:53;98307.63;;;11.80;77.12
73700;BME280;62005;50.082;8.988;2023-03-14T09:25:24;98343.78;;;11.99;76.79
73700;BME280;62005;50.082;8.988;2023-03-14T09:27:52;98266.59;;;11.68;75.43
73700;BME280;62005;50.082;8.988;2023-03-14T09:30:18;98288.69;;;11.80;75.74
73700;BME280;62005;50.082;8.988;2023-03-14T09:36:11;98285.97;;;11.80;76.21
73700;BME280;62005;50.082;8.988;2023-03-14T09:38:59;98262.22;;;11.72;75.35
73700;BME280;62005;50.082;8.988;2023-03-14T09:41:28;98270.81;;;11.84;75.97
73700;BME280;62005;50.082;8.988;2023-03-14T09:44:59;98266.53;;;11.78;75.70
73700;BME280;62005;50.082;8.988;2023-03-14T09:48:01;98348.41;;;12.37;75.12
73700;BME280;62005;50.082;8.988;2023-03-14T09:50:44;98290.19;;;12.01;74.45
73700;BME280;62005;50.082;8.988;2023-03-14T09:53:20;98353.25;;;12.40;75.29
73700;BME280;62005;50.082;8.988;2023-03-14T09:56:23;98349.19;;;12.43;75.07
73700;BME280;62005;50.082;8.988;2023-03-14T09:59:05;98268.81;;;12.00;75.29
73700;BME280;62005;50.082;8.988;2023-03-14T10:02:20;98303.53;;;12.26;75.44
73700;BME280;62005;50.082;8.988;2023-03-14T10:04:51;98340.69;;;12.54;75.52
73700;BME280;62005;50.082;8.988;2023-03-14T10:07:30;98304.50;;;12.35;74.93
73700;BME280;62005;50.082;8.988;2023-03-14T10:10:08;98311.00;;;12.39;75.28
73700;BME280;62005;50.082;8.988;2023-03-14T10:15:33;98336.28;;;12.58;74.85
73700;BME280;62005;50.082;8.988;2023-03-14T10:18:09;98291.59;;;12.27;75.81
73700;BME280;62005;50.082;8.988;2023-03-14T10:20:40;98300.69;;;12.36;74.98
73700;BME280;62005;50.082;8.988;2023-03-14T10:28:26;98337.09;;;12.59;75.17
73700;BME280;62005;50.082;8.988;2023-03-14T10:30:53;98280.78;;;12.22;75.13
73700;BME280;62005;50.082;8.988;2023-03-14T10:37:25;98302.41;;;12.27;74.89
73700;BME280;62005;50.082;8.988;2023-03-14T10:40:19;98312.09;;;12.33;75.12
73700;BME280;62005;50.082;8.988;2023-03-14T10:42:49;98291.91;;;12.21;75.22
73700;BME280;62005;50.082;8.988;2023-03-14T10:45:55;98339.03;;;12.53;77.43
73700;BME280;62005;50.082;8.988;2023-03-14T10:48:35;98272.25;;;12.05;77.36
73700;BME280;62005;50.082;8.988;2023-03-14T10:51:26;98263.06;;;12.06;79.14
73700;BME280;62005;50.082;8.988;2023-03-14T10:54:01;98345.03;;;12.50;79.11
73700;BME280;62005;50.082;8.988;2023-03-14T10:56:43;98348.03;;;12.49;80.11
73700;BME280;62005;50.082;8.988;2023-03-14T11:03:08;98341.88;;;12.38;80.56
73700;BME280;62005;50.082;8.988;2023-03-14T11:06:02;98335.97;;;12.31;82.22
73700;BME280;62005;50.082;8.988;2023-03-14T11:12:03;98264.91;;;11.72;82.78
73700;BME280;62005;50.082;8.988;2023-03-14T11:14:46;98346.41;;;12.14;84.34
73700;BME280;62005;50.082;8.988;2023-03-14T11:27:43;98354.06;;;12.02;85.46
73700;BME280;62005;50.082;8.988;2023-03-14T11:40:32;98272.97;;;11.38;87.15
73700;BME280;62005;50.082;8.988;2023-03-14T11:43:28;98305.06;;;11.55;87.40
73700;BME280;62005;50.082;8.988;2023-03-14T11:46:03;98306.13;;;11.54;87.07
73700;BME280;62005;50.082;8.988;2023-03-14T12:13:49;98271.41;;;11.17;89.69
73700;BME280;62005;50.082;8.988;2023-03-14T12:26:26;98267.38;;;11.20;89.81
73700;BME280;62005;50.082;8.988;2023-03-14T12:29:24;98298.38;;;11.37;90.66
73700;BME280;62005;50.082;8.988;2023-03-14T12:38:50;98455.56;;;11.31;86.06
73700;BME280;62005;50.082;8.988;2023-03-14T12:41:25;98473.94;;;11.29;84.15
73700;BME280;62005;50.082;8.988;2023-03-14T13:07:13;98628.63;;;11.01;84.25
73700;BME280;62005;50.082;8.988;2023-03-14T13:10:55;98565.25;;;10.41;83.89
73700;BME280;62005;50.082;8.988;2023-03-14T13:16:44;98610.66;;;10.49;82.85
73700;BME280;62005;50.082;8.988;2023-03-14T13:19:59;98616.31;;;10.43;83.04
73700;BME280;62005;50.082;8.988;2023-03-14T13:29:43;98656.53;;;10.34;82.43
73700;BME280;62005;50.082;8.988;2023-03-14T13:32:40;98737.22;;;10.78;82.21
73700;BME280;62005;50.082;8.988;2023-03-14T13:38:58;98751.00;;;10.76;80.60
73700;BME280;62005;50.082;8.988;2023-03-14T13:41:43;98678.09;;;10.24;80.67
73700;BME280;62005;50.082;8.988;2023-03-14T13:47:42;98723.03;;;10.45;78.63
73700;BME280;62005;50.082;8.988;2023-03-14T13:57:06;98796.19;;;10.81;79.29
73700;BME280;62005;50.082;8.988;2023-03-14T14:02:57;98783.13;;;10.63;79.36
73700;BME280;62005;50.082;8.988;2023-03-14T14:09:04;98826.50;;;10.93;79.53
73700;BME280;62005;50.082;8.988;2023-03-14T14:18:24;98801.84;;;10.37;79.21
73700;BME280;62005;50.082;8.988;2023-03-14T14:21:34;98829.50;;;10.54;78.96
73700;BME280;62005;50.082;8.988;2023-03-14T16:23:36;99257.97;;;8.44;79.30
73700;BME280;62005;50.082;8.988;2023-03-14T19:53:31;99738.13;;;6.90;83.35
73700;BME280;62005;50.082;8.988;2023-03-14T20:00:01;99691.69;;;6.39;81.97
73700;BME280;62005;50.082;8.988;2023-03-14T20:02:50;99727.56;;;6.51;83.56
73700;BME280;62005;50.082;8.988;2023-03-14T20:30:30;99731.84;;;5.95;85.73
73700;BME280;62005;50.082;8.988;2023-03-14T20:36:25;99822.16;;;6.40;86.06
73700;BME280;62005;50.082;8.988;2023-03-14T20:42:30;99808.16;;;6.12;86.02
73700;BME280;62005;50.082;8.988;2023-03-14T21:33:57;99862.16;;;5.63;86.22
73700;BME280;62005;50.082;8.988;2023-03-14T21:37:00;99862.97;;;5.64;85.43
73700;BME280;62005;50.082;8.988;2023-03-14T21:42:36;99946.84;;;6.05;84.42
73700;BME280;62005;50.082;8.988;2023-03-14T21:45:26;99943.56;;;6.03;83.90
73700;BME280;62005;50.082;8.988;2023-03-14T21:54:56;99937.09;;;5.84;81.66
73700;BME280;62005;50.082;8.988;2023-03-14T23:31:17;100103.06;;;5.66;84.92
73700;BME280;62005;50.082;8.988;2023-03-14T23:33:49;100116.25;;;5.68;84.98
73700;BME280;62005;50.082;8.988;2023-03-14T23:36:26;100059.97;;;5.33;85.38
73700;BME280;62005;50.082;8.988;2023-03-14T23:38:54;100037.56;;;5.13;84.69
73700;BME280;62005;50.082;8.988;2023-03-14T23:42:12;100064.44;;;5.26;85.11
73700;BME280;62005;50.082;8.988;2023-03-14T23:45:17;100124.88;;;5.57;84.92
73700;BME280;62005;50.082;8.988;2023-03-14T23:48:05;100077.22;;;5.24;84.46
73700;BME280;62005;50.082;8.988;2023-03-14T23:50:36;100093.38;;;5.38;84.10
73700;BME280;62005;50.082;8.988;2023-03-14T23:53:14;100061.03;;;5.11;84.82
73700;BME280;62005;50.082;8.988;2023-03-14T23:56:00;100046.53;;;4.99;84.93
73700;BME280;62005;50.082;8.988;2023-03-14T23:58:40;100040.69;;;4.89;84.37
